Amherst, South Dakota
Current Conditions -  °F | °C
As of 2:53 AM on Sunday 26 Oct 2014 (Local Time) from KABR Reporting Station
Clear Clear  
Wind Chill: 33°   Ceiling: Unl
Heat Index: 39°   Visibility: 10mi
Dew Point: 31°   Wind: 9mph
Humidity: 73%   Direction: 140°SE
Pressure: 29.92"   Gusts: NA
Location:  45.74°N, 97.92°W
Report Text: KABR 260753Z AUTO 14008KT 10SM CLR 04/M01 A2992 RMK AO2 SLP134 T00391006
Loading
Personal Weather Stations






























Interactive Weather Map New forecast layout! Learn more

10-Day Weather Forecast

Advertisements
Track Severe Weather on mobile